createdAt,value
2023-08-11T00:01:51.729Z,2.00
2023-08-11T00:04:19.226Z,2.07
2023-08-11T00:06:45.903Z,2.00
2023-08-11T00:09:13.317Z,2.17
2023-08-11T00:11:39.668Z,2.10
2023-08-11T00:14:05.995Z,2.13
2023-08-11T00:16:32.405Z,1.80
2023-08-11T00:18:58.913Z,2.03
2023-08-11T00:21:25.246Z,1.90
2023-08-11T00:23:51.588Z,1.90
2023-08-11T00:26:17.990Z,1.90
2023-08-11T00:28:45.592Z,1.67
2023-08-11T00:31:12.639Z,2.20
2023-08-11T00:33:39.051Z,1.93
2023-08-11T00:36:05.663Z,2.07
2023-08-11T00:38:41.140Z,2.13
2023-08-11T00:41:08.217Z,1.80
2023-08-11T00:43:34.655Z,2.20
2023-08-11T00:46:14.347Z,1.93
2023-08-11T00:48:42.883Z,1.80
2023-08-11T00:51:14.627Z,1.83
2023-08-11T00:53:41.633Z,1.87
2023-08-11T00:56:08.500Z,2.00
2023-08-11T00:58:35.562Z,1.70
2023-08-11T01:01:01.968Z,1.70
2023-08-11T01:03:28.657Z,1.83
2023-08-11T01:06:09.495Z,1.93
2023-08-11T01:09:15.087Z,1.77
2023-08-11T01:11:53.172Z,2.00
2023-08-11T01:14:29.007Z,2.00
2023-08-11T01:16:56.881Z,1.90
2023-08-11T01:19:37.546Z,1.80
2023-08-11T01:22:05.507Z,1.83
2023-08-11T01:24:32.201Z,1.80
2023-08-11T01:26:58.758Z,2.10
2023-08-11T01:29:28.175Z,1.87
2023-08-11T01:31:54.544Z,1.80
2023-08-11T01:34:20.897Z,1.80
2023-08-11T01:36:47.263Z,2.00
2023-08-11T01:39:14.380Z,1.90
2023-08-11T01:41:40.821Z,1.70
2023-08-11T01:44:07.286Z,2.10
2023-08-11T01:46:34.165Z,1.80
2023-08-11T01:49:01.082Z,2.30
2023-08-11T01:51:27.676Z,1.63
2023-08-11T01:53:54.184Z,1.70
2023-08-11T01:56:25.242Z,1.53
2023-08-11T01:58:51.563Z,1.90
2023-08-11T02:01:17.918Z,1.83
2023-08-11T02:03:44.568Z,1.77
2023-08-11T02:06:10.991Z,1.87
2023-08-11T02:08:37.339Z,1.70
2023-08-11T02:11:04.489Z,1.70
2023-08-11T02:13:30.853Z,2.53
2023-08-11T02:15:57.279Z,1.77
2023-08-11T02:18:23.640Z,2.10
2023-08-11T02:20:50.000Z,2.00
2023-08-11T02:23:16.395Z,1.70
2023-08-11T02:25:42.734Z,2.07
2023-08-11T02:28:09.079Z,2.33
2023-08-11T02:30:35.448Z,1.90
2023-08-11T02:33:01.891Z,1.80
2023-08-11T02:35:28.249Z,2.00
2023-08-11T02:37:54.597Z,2.10
2023-08-11T02:40:21.295Z,1.77
2023-08-11T02:42:57.606Z,1.80
2023-08-11T02:45:25.042Z,1.83
2023-08-11T02:47:52.336Z,1.90
2023-08-11T02:50:18.995Z,2.07
2023-08-11T02:52:45.377Z,2.30
2023-08-11T02:55:12.553Z,2.07
2023-08-11T02:57:39.145Z,1.90
2023-08-11T03:00:13.883Z,1.93
2023-08-11T03:02:41.216Z,2.00
2023-08-11T03:05:08.576Z,1.80
2023-08-11T03:07:36.086Z,2.07
2023-08-11T03:10:02.453Z,1.73
2023-08-11T03:12:31.828Z,2.00
2023-08-11T03:14:58.446Z,2.10
2023-08-11T03:17:24.859Z,2.23
2023-08-11T03:19:51.259Z,1.93
2023-08-11T03:22:20.854Z,2.03
2023-08-11T03:24:47.338Z,1.90
2023-08-11T03:27:14.047Z,2.20
2023-08-11T03:29:40.856Z,2.00
2023-08-11T03:32:07.518Z,2.00
2023-08-11T03:34:34.218Z,1.80
2023-08-11T03:37:00.658Z,1.90
2023-08-11T03:39:27.160Z,1.67
2023-08-11T03:41:53.488Z,2.03
2023-08-11T03:44:19.860Z,2.10
2023-08-11T03:46:46.338Z,2.20
2023-08-11T03:49:13.010Z,1.90
2023-08-11T03:51:39.610Z,2.00
2023-08-11T03:54:06.053Z,1.93
2023-08-11T03:56:32.428Z,1.87
2023-08-11T03:58:58.831Z,2.10
2023-08-11T04:01:25.245Z,2.00
2023-08-11T04:03:51.658Z,2.20
2023-08-11T04:06:18.349Z,2.37
2023-08-11T04:08:45.293Z,2.10
2023-08-11T04:11:12.276Z,2.00
2023-08-11T04:13:38.619Z,1.70
2023-08-11T04:16:04.976Z,1.57
2023-08-11T04:18:31.353Z,1.73
2023-08-11T04:20:57.747Z,1.90
2023-08-11T04:23:24.162Z,1.90
2023-08-11T04:25:50.546Z,1.90
2023-08-11T04:28:17.008Z,2.00
2023-08-11T04:30:43.454Z,1.90
2023-08-11T04:33:09.858Z,1.63
2023-08-11T04:35:36.338Z,1.80
2023-08-11T04:38:02.837Z,2.00
2023-08-11T04:40:29.330Z,2.20
2023-08-11T04:42:55.702Z,1.73
2023-08-11T04:45:22.564Z,2.00
2023-08-11T04:47:49.007Z,1.80
2023-08-11T04:50:15.526Z,2.00
2023-08-11T04:52:43.790Z,2.47
2023-08-11T04:55:11.739Z,1.97
2023-08-11T04:57:38.226Z,1.90
2023-08-11T05:00:07.711Z,2.10
2023-08-11T05:02:34.370Z,2.13
2023-08-11T05:05:01.047Z,2.37
2023-08-11T05:07:27.416Z,1.97
2023-08-11T05:09:53.869Z,2.87
2023-08-11T05:12:20.283Z,2.50
2023-08-11T05:14:48.277Z,2.33
2023-08-11T05:17:15.039Z,1.73
2023-08-11T05:19:41.389Z,1.70
2023-08-11T05:22:07.934Z,2.13
2023-08-11T05:24:34.300Z,2.03
2023-08-11T05:27:00.723Z,2.20
2023-08-11T05:29:27.220Z,2.20
2023-08-11T05:31:53.659Z,2.40
2023-08-11T05:34:20.063Z,1.93
2023-08-11T05:36:46.769Z,2.00
2023-08-11T05:39:13.854Z,1.70
2023-08-11T05:41:40.272Z,1.70
2023-08-11T05:44:06.663Z,1.90
2023-08-11T05:46:33.451Z,1.90
2023-08-11T05:48:59.820Z,1.97
2023-08-11T05:51:26.462Z,2.57
2023-08-11T05:53:54.438Z,1.83
2023-08-11T05:56:21.167Z,2.00
2023-08-11T05:58:47.513Z,2.00
2023-08-11T06:01:13.922Z,1.93
2023-08-11T06:03:40.374Z,1.80
2023-08-11T06:06:06.785Z,1.90
2023-08-11T06:08:33.188Z,1.90
2023-08-11T06:10:59.574Z,1.90
2023-08-11T06:13:26.063Z,2.23
2023-08-11T06:15:52.537Z,2.43
2023-08-11T06:18:19.783Z,1.70
2023-08-11T06:20:48.272Z,1.90
2023-08-11T06:23:14.627Z,2.33
2023-08-11T06:25:41.265Z,1.90
2023-08-11T06:28:08.745Z,1.80
2023-08-11T06:30:35.465Z,2.70
2023-08-11T06:33:02.381Z,2.20
2023-08-11T06:35:28.885Z,2.33
2023-08-11T06:37:55.357Z,1.93
2023-08-11T06:40:21.738Z,2.03
2023-08-11T06:42:48.076Z,2.13
2023-08-11T06:45:14.626Z,2.30
2023-08-11T06:47:41.074Z,2.20
2023-08-11T06:50:07.706Z,2.30
2023-08-11T06:52:34.077Z,2.30
2023-08-11T06:55:00.484Z,2.27
2023-08-11T06:57:26.932Z,2.37
2023-08-11T06:59:53.445Z,2.37
2023-08-11T07:02:19.880Z,2.60
2023-08-11T07:04:46.344Z,2.20
2023-08-11T07:07:12.693Z,2.40
2023-08-11T07:09:39.133Z,2.23
2023-08-11T07:12:05.845Z,2.97
2023-08-11T07:14:32.194Z,2.80
2023-08-11T07:16:59.010Z,2.60
2023-08-11T07:19:25.432Z,2.90
2023-08-11T07:21:51.758Z,2.77
2023-08-11T07:24:18.116Z,2.70
2023-08-11T07:26:44.467Z,2.43
2023-08-11T07:29:11.181Z,2.77
2023-08-11T07:31:37.525Z,3.03
2023-08-11T07:34:04.346Z,2.67
2023-08-11T07:36:30.674Z,2.70
2023-08-11T07:39:09.032Z,3.13
2023-08-11T07:41:43.404Z,2.87
2023-08-11T07:44:10.109Z,3.00
2023-08-11T07:46:36.583Z,2.77
2023-08-11T07:49:03.008Z,2.87
2023-08-11T07:51:29.368Z,3.63
2023-08-11T07:53:55.824Z,2.80
2023-08-11T07:56:22.209Z,3.50
2023-08-11T07:58:48.932Z,3.37
2023-08-11T08:01:15.309Z,3.10
2023-08-11T08:03:41.935Z,3.93
2023-08-11T08:06:08.464Z,3.47
2023-08-11T08:08:34.951Z,3.30
2023-08-11T08:11:02.596Z,3.40
2023-08-11T08:13:32.554Z,3.10
2023-08-11T08:15:58.928Z,3.50
2023-08-11T08:18:25.491Z,3.53
2023-08-11T08:20:51.840Z,4.00
2023-08-11T08:23:18.677Z,3.90
2023-08-11T08:25:45.018Z,3.30
2023-08-11T08:28:12.171Z,3.90
2023-08-11T08:30:38.569Z,3.60
2023-08-11T08:33:07.088Z,3.97
2023-08-11T08:35:33.691Z,3.60
2023-08-11T08:38:00.095Z,3.37
2023-08-11T08:40:27.650Z,3.70
2023-08-11T08:42:54.297Z,4.20
2023-08-11T08:45:22.475Z,3.47
2023-08-11T08:47:50.461Z,3.80
2023-08-11T08:50:19.307Z,3.60
2023-08-11T08:52:45.785Z,3.73
2023-08-11T08:55:12.798Z,3.47
2023-08-11T08:57:40.114Z,4.60
2023-08-11T09:00:08.893Z,4.67
2023-08-11T09:02:35.370Z,4.50
2023-08-11T09:05:01.918Z,4.27
2023-08-11T09:07:28.802Z,4.60
2023-08-11T09:09:55.143Z,4.70
2023-08-11T09:12:21.519Z,4.73
2023-08-11T09:14:48.081Z,4.70
2023-08-11T09:17:14.486Z,4.20
2023-08-11T09:19:44.245Z,4.23
2023-08-11T09:22:11.885Z,4.37
2023-08-11T09:24:40.012Z,4.50
2023-08-11T09:27:07.347Z,4.40
2023-08-11T09:29:35.920Z,4.50
2023-08-11T09:32:03.510Z,4.40
2023-08-11T09:34:29.920Z,5.10
2023-08-11T09:36:56.269Z,4.90
2023-08-11T09:39:22.670Z,5.20
2023-08-11T09:41:49.705Z,4.67
2023-08-11T09:44:19.779Z,4.53
2023-08-11T09:46:47.345Z,6.07
2023-08-11T09:49:13.756Z,5.17
2023-08-11T09:51:41.590Z,5.80
2023-08-11T09:54:09.949Z,5.50
2023-08-11T09:56:43.566Z,5.80
2023-08-11T09:59:19.315Z,5.50
2023-08-11T10:01:46.972Z,5.60
2023-08-11T10:04:38.591Z,4.93
2023-08-11T10:07:11.040Z,5.83
2023-08-11T10:09:37.908Z,5.43
2023-08-11T10:12:05.567Z,4.73
2023-08-11T10:14:34.296Z,5.33
2023-08-11T10:17:00.835Z,5.43
2023-08-11T10:19:27.487Z,5.13
2023-08-11T10:21:54.670Z,5.43
2023-08-11T10:24:21.300Z,5.50
2023-08-11T10:26:48.191Z,5.60
2023-08-11T10:29:14.637Z,6.17
2023-08-11T10:31:55.980Z,5.97
2023-08-11T10:34:24.262Z,5.63
2023-08-11T10:36:51.718Z,5.37
2023-08-11T10:39:19.987Z,6.10
2023-08-11T10:41:46.833Z,6.53
2023-08-11T10:44:18.514Z,5.40
2023-08-11T10:46:46.298Z,6.27
2023-08-11T10:49:15.718Z,5.40
2023-08-11T10:51:42.831Z,6.30
2023-08-11T10:54:11.418Z,6.00
2023-08-11T10:56:39.590Z,5.53
2023-08-11T10:59:11.164Z,5.83
2023-08-11T11:01:38.784Z,5.57
2023-08-11T11:04:07.295Z,5.53
2023-08-11T11:06:34.737Z,6.07
2023-08-11T11:09:02.573Z,5.07
2023-08-11T11:11:28.910Z,5.00
2023-08-11T11:13:55.290Z,5.10
2023-08-11T11:16:22.150Z,5.37
2023-08-11T11:18:49.464Z,5.07
2023-08-11T11:21:16.723Z,5.53
2023-08-11T11:23:50.738Z,4.60
2023-08-11T11:26:25.425Z,5.00
2023-08-11T11:28:52.683Z,4.77
2023-08-11T11:31:20.105Z,4.80
2023-08-11T11:33:47.270Z,3.60
2023-08-11T11:36:16.539Z,3.40
2023-08-11T11:38:43.957Z,3.50
2023-08-11T11:41:20.158Z,3.00
2023-08-11T11:43:48.129Z,3.03
2023-08-11T11:46:18.093Z,3.80
2023-08-11T11:48:46.026Z,3.17
2023-08-11T11:51:16.774Z,3.50
2023-08-11T11:53:43.968Z,2.73
2023-08-11T11:56:15.999Z,2.60
2023-08-11T11:58:45.104Z,3.13
2023-08-11T12:01:20.456Z,3.00
2023-08-11T12:03:49.242Z,2.73
2023-08-11T12:06:19.096Z,2.47
2023-08-11T12:08:46.168Z,2.43
2023-08-11T12:11:13.879Z,2.70
2023-08-11T12:13:41.715Z,2.60
2023-08-11T12:16:09.670Z,3.10
2023-08-11T12:18:38.620Z,2.60
2023-08-11T12:21:05.428Z,2.30
2023-08-11T12:23:32.795Z,2.93
2023-08-11T12:25:59.855Z,2.07
2023-08-11T12:28:27.331Z,1.97
2023-08-11T12:30:53.782Z,2.20
2023-08-11T12:33:21.353Z,1.90
2023-08-11T12:35:49.132Z,2.10
2023-08-11T12:38:16.700Z,1.70
2023-08-11T12:40:44.514Z,1.97
2023-08-11T12:43:13.785Z,1.93
2023-08-11T12:45:41.375Z,1.60
2023-08-11T12:48:09.124Z,1.80
2023-08-11T12:50:37.181Z,1.70
2023-08-11T12:53:07.505Z,1.70
2023-08-11T12:55:34.920Z,1.70
2023-08-11T12:58:02.265Z,1.70
2023-08-11T13:00:28.989Z,1.47
2023-08-11T13:02:55.937Z,1.70
2023-08-11T13:05:22.396Z,1.90
2023-08-11T13:07:48.962Z,1.97
2023-08-11T13:10:15.431Z,1.93
2023-08-11T13:12:42.651Z,1.60
2023-08-11T13:15:09.932Z,1.40
2023-08-11T13:17:36.305Z,1.63
2023-08-11T13:20:07.476Z,1.60
2023-08-11T13:22:34.939Z,1.70
2023-08-11T13:25:01.337Z,1.47
2023-08-11T13:27:27.791Z,1.70
2023-08-11T13:29:54.137Z,1.40
2023-08-11T13:32:20.568Z,1.53
2023-08-11T13:34:46.944Z,1.60
2023-08-11T13:37:13.280Z,1.73
2023-08-11T13:39:39.661Z,1.60
2023-08-11T13:42:07.082Z,1.80
2023-08-11T13:44:33.715Z,1.50
2023-08-11T13:47:00.080Z,1.50
2023-08-11T13:49:26.488Z,1.70
2023-08-11T13:51:53.022Z,1.47
2023-08-11T13:54:19.353Z,1.60
2023-08-11T13:56:45.699Z,1.50
2023-08-11T13:59:12.068Z,1.50
2023-08-11T14:01:38.485Z,1.60
2023-08-11T14:04:05.334Z,1.70
2023-08-11T14:06:31.676Z,1.50
2023-08-11T14:08:59.544Z,1.57
2023-08-11T14:11:25.963Z,1.77
2023-08-11T14:13:52.308Z,1.53
2023-08-11T14:16:19.932Z,1.70
2023-08-11T14:18:46.391Z,1.40
2023-08-11T14:21:17.193Z,1.40
2023-08-11T14:23:43.549Z,1.17
2023-08-11T14:26:09.977Z,1.60
2023-08-11T14:28:37.107Z,1.30
2023-08-11T14:31:03.491Z,1.50
2023-08-11T14:33:29.947Z,1.80
2023-08-11T14:36:03.484Z,1.70
2023-08-11T14:38:30.144Z,1.43
2023-08-11T14:40:56.511Z,1.50
2023-08-11T14:43:22.895Z,1.53
2023-08-11T14:45:49.250Z,1.53
2023-08-11T14:48:15.670Z,1.37
2023-08-11T14:50:42.010Z,1.50
2023-08-11T14:53:08.442Z,1.40
2023-08-11T14:55:34.846Z,1.60
2023-08-11T14:58:01.280Z,1.27
2023-08-11T15:00:27.658Z,1.60
2023-08-11T15:02:54.145Z,1.47
2023-08-11T15:05:20.711Z,1.27
2023-08-11T15:07:47.421Z,1.50
2023-08-11T15:10:13.794Z,1.40
2023-08-11T15:12:40.211Z,1.30
2023-08-11T15:15:07.282Z,1.50
2023-08-11T15:17:33.710Z,1.60
2023-08-11T15:20:00.184Z,1.40
2023-08-11T15:22:26.569Z,1.83
2023-08-11T15:24:52.945Z,1.50
2023-08-11T15:27:20.043Z,1.77
2023-08-11T15:29:46.405Z,1.50
2023-08-11T15:32:13.089Z,1.97
2023-08-11T15:34:41.233Z,2.30
2023-08-11T15:37:07.647Z,1.47
2023-08-11T15:39:34.037Z,4.03
2023-08-11T15:42:00.489Z,2.73
2023-08-11T15:44:26.850Z,1.93
2023-08-11T15:46:53.380Z,2.20
2023-08-11T15:49:19.802Z,2.00
2023-08-11T15:51:46.249Z,1.80
2023-08-11T15:54:12.848Z,1.83
2023-08-11T15:56:39.247Z,1.50
2023-08-11T15:59:06.920Z,1.70
2023-08-11T16:01:33.509Z,1.50
2023-08-11T16:04:00.005Z,1.50
2023-08-11T16:06:26.425Z,4.90
2023-08-11T16:08:52.956Z,1.80
2023-08-11T16:11:19.372Z,1.73
2023-08-11T16:13:45.750Z,1.60
2023-08-11T16:16:12.467Z,1.70
2023-08-11T16:18:38.920Z,1.60
2023-08-11T16:21:06.558Z,1.63
2023-08-11T16:23:33.240Z,1.73
2023-08-11T16:25:59.868Z,2.07
2023-08-11T16:28:26.437Z,1.60
2023-08-11T16:30:54.388Z,2.17
2023-08-11T16:33:20.929Z,1.67
2023-08-11T16:35:47.954Z,1.70
2023-08-11T16:38:14.313Z,1.80
2023-08-11T16:40:40.638Z,1.77
2023-08-11T16:43:07.041Z,1.70
2023-08-11T16:45:33.885Z,1.53
2023-08-11T16:48:01.342Z,1.67
2023-08-11T16:50:27.774Z,12.60
2023-08-11T16:52:54.712Z,2.50
2023-08-11T16:55:22.160Z,17.97
2023-08-11T16:57:48.602Z,7.77
2023-08-11T17:00:15.888Z,12.57
2023-08-11T17:02:42.492Z,2.47
2023-08-11T17:05:09.211Z,6.33
2023-08-11T17:07:35.878Z,2.80
2023-08-11T17:10:02.383Z,3.07
2023-08-11T17:12:28.765Z,1.60
2023-08-11T17:14:55.305Z,1.73
2023-08-11T17:17:21.665Z,1.60
2023-08-11T17:19:48.378Z,1.63
2023-08-11T17:22:14.784Z,2.60
2023-08-11T17:24:41.223Z,4.97
2023-08-11T17:27:07.681Z,1.50
2023-08-11T17:29:34.191Z,1.70
2023-08-11T17:32:00.554Z,1.60
2023-08-11T17:34:26.985Z,1.80
2023-08-11T17:36:53.400Z,1.60
2023-08-11T17:39:19.841Z,1.50
2023-08-11T17:41:49.420Z,1.60
2023-08-11T17:44:15.818Z,2.00
2023-08-11T17:46:42.307Z,2.43
2023-08-11T17:49:08.877Z,2.60
2023-08-11T17:51:35.360Z,2.17
2023-08-11T17:54:09.604Z,1.80
2023-08-11T17:56:37.998Z,2.03
2023-08-11T17:59:05.794Z,1.97
2023-08-11T18:01:32.412Z,2.00
2023-08-11T18:04:05.186Z,2.10
2023-08-11T18:06:34.261Z,2.10
2023-08-11T18:09:01.463Z,2.20
2023-08-11T18:11:29.328Z,2.20
2023-08-11T18:13:55.986Z,2.27
2023-08-11T18:16:23.921Z,2.20
2023-08-11T18:18:50.312Z,2.53
2023-08-11T18:21:21.180Z,2.67
2023-08-11T18:23:48.145Z,2.70
2023-08-11T18:26:15.529Z,2.50
2023-08-11T18:28:41.868Z,2.60
2023-08-11T18:31:08.708Z,2.07
2023-08-11T18:33:35.380Z,2.20
2023-08-11T18:36:01.779Z,2.40
2023-08-11T18:38:28.281Z,2.33
2023-08-11T18:40:54.779Z,2.00
2023-08-11T18:43:21.319Z,2.17
2023-08-11T18:45:47.750Z,2.30
2023-08-11T18:48:15.858Z,2.53
2023-08-11T18:50:42.764Z,2.43
2023-08-11T18:53:09.159Z,2.40
2023-08-11T18:55:35.630Z,2.70
2023-08-11T18:58:02.084Z,2.30
2023-08-11T19:00:28.429Z,2.90
2023-08-11T19:02:54.926Z,2.93
2023-08-11T19:05:22.151Z,2.80
2023-08-11T19:07:48.502Z,3.00
2023-08-11T19:10:14.995Z,2.73
2023-08-11T19:12:41.587Z,2.50
2023-08-11T19:15:08.369Z,2.87
2023-08-11T19:17:34.743Z,2.40
2023-08-11T19:20:04.034Z,2.83
2023-08-11T19:22:31.213Z,2.97
2023-08-11T19:24:58.213Z,3.10
2023-08-11T19:27:26.999Z,3.20
2023-08-11T19:29:55.502Z,3.13
2023-08-11T19:32:21.887Z,3.20
2023-08-11T19:34:48.279Z,3.20
2023-08-11T19:37:15.350Z,3.20
2023-08-11T19:39:41.830Z,3.10
2023-08-11T19:42:08.501Z,2.80
2023-08-11T19:44:35.322Z,2.83
2023-08-11T19:47:01.725Z,2.73
2023-08-11T19:49:28.112Z,2.80
2023-08-11T19:51:54.728Z,2.80
2023-08-11T19:54:21.379Z,2.70
2023-08-11T19:56:47.875Z,3.40
2023-08-11T19:59:14.402Z,3.27
2023-08-11T20:01:40.827Z,2.80
2023-08-11T20:04:07.199Z,3.20
2023-08-11T20:06:33.766Z,3.07
2023-08-11T20:09:00.291Z,2.67
2023-08-11T20:11:27.231Z,2.90
2023-08-11T20:13:53.577Z,2.50
2023-08-11T20:16:19.973Z,2.80
2023-08-11T20:18:46.336Z,2.90
2023-08-11T20:21:13.736Z,3.03
2023-08-11T20:23:40.288Z,2.70
2023-08-11T20:26:06.792Z,3.23
2023-08-11T20:28:34.542Z,2.77
2023-08-11T20:31:02.652Z,3.03
2023-08-11T20:33:29.318Z,2.90
2023-08-11T20:35:59.535Z,2.77
2023-08-11T20:38:26.941Z,2.80
2023-08-11T20:40:57.984Z,2.60
2023-08-11T20:43:24.876Z,2.87
2023-08-11T20:45:51.386Z,3.13
2023-08-11T20:48:18.429Z,2.70
2023-08-11T20:50:46.087Z,2.80
2023-08-11T20:53:12.994Z,2.87
2023-08-11T20:55:39.393Z,2.83
2023-08-11T20:58:05.913Z,2.73
2023-08-11T21:00:32.406Z,3.10
2023-08-11T21:02:59.748Z,3.07
2023-08-11T21:05:26.121Z,3.70
2023-08-11T21:07:52.460Z,3.37
2023-08-11T21:10:19.027Z,3.47
2023-08-11T21:12:45.406Z,3.60
2023-08-11T21:15:13.379Z,3.47
2023-08-11T21:17:39.980Z,3.20
2023-08-11T21:20:07.377Z,3.67
2023-08-11T21:22:33.795Z,3.77
2023-08-11T21:25:02.600Z,5.27
2023-08-11T21:27:28.969Z,9.07
2023-08-11T21:29:55.824Z,10.67
2023-08-11T21:32:23.709Z,11.07
2023-08-11T21:34:51.352Z,8.97
2023-08-11T21:37:18.285Z,7.50
2023-08-11T21:39:44.787Z,6.87
2023-08-11T21:42:12.359Z,5.57
2023-08-11T21:44:38.805Z,4.50
2023-08-11T21:47:05.969Z,4.00
2023-08-11T21:49:32.490Z,3.77
2023-08-11T21:51:58.918Z,3.50
2023-08-11T21:54:25.856Z,3.53
2023-08-11T21:56:52.538Z,3.30
2023-08-11T21:59:18.945Z,3.33
2023-08-11T22:01:45.452Z,3.23
2023-08-11T22:04:11.837Z,3.23
2023-08-11T22:06:38.561Z,3.40
2023-08-11T22:09:05.676Z,3.17
2023-08-11T22:11:36.981Z,3.40
2023-08-11T22:14:04.510Z,3.37
2023-08-11T22:16:30.958Z,3.23
2023-08-11T22:18:57.378Z,2.90
2023-08-11T22:21:23.903Z,3.10
2023-08-11T22:23:50.705Z,2.87
2023-08-11T22:26:18.156Z,3.00
2023-08-11T22:28:44.583Z,3.10
2023-08-11T22:31:18.035Z,4.40
2023-08-11T22:33:44.669Z,3.00
2023-08-11T22:36:11.131Z,2.80
2023-08-11T22:38:38.550Z,3.50
2023-08-11T22:41:04.897Z,3.10
2023-08-11T22:43:31.245Z,3.07
2023-08-11T22:45:57.654Z,2.70
2023-08-11T22:48:24.060Z,2.63
2023-08-11T22:50:50.558Z,3.20
2023-08-11T22:53:18.422Z,3.10
2023-08-11T22:55:44.906Z,2.97
2023-08-11T22:58:11.269Z,2.87
2023-08-11T23:00:38.963Z,3.70
2023-08-11T23:03:07.205Z,2.83
2023-08-11T23:05:33.877Z,2.97
2023-08-11T23:08:01.334Z,2.80
2023-08-11T23:10:27.780Z,2.73
2023-08-11T23:12:54.152Z,2.70
2023-08-11T23:15:20.553Z,2.63
2023-08-11T23:17:47.027Z,2.50
2023-08-11T23:20:15.737Z,2.83
2023-08-11T23:22:42.139Z,2.70
2023-08-11T23:25:08.992Z,2.97
2023-08-11T23:27:35.338Z,3.13
2023-08-11T23:30:02.224Z,2.80
2023-08-11T23:32:30.529Z,2.90
2023-08-11T23:34:57.693Z,2.70
2023-08-11T23:37:25.046Z,2.67
2023-08-11T23:39:51.591Z,2.80
2023-08-11T23:42:17.986Z,2.70
2023-08-11T23:44:44.436Z,2.57
2023-08-11T23:47:11.512Z,2.90
2023-08-11T23:49:38.142Z,3.00
2023-08-11T23:52:05.832Z,2.60
2023-08-11T23:54:33.125Z,3.00
2023-08-11T23:56:59.529Z,3.13
2023-08-11T23:59:25.998Z,3.00
